Time;durP1;ratioP1;P1;durP2;ratioP2;P2;SDS_P1;SDS_P2;PMS_P1;PMS_P2;Temp;Humidity;BMP_temperature;BMP_pressure;BME280_temperature;BME280_humidity;BME280_pressure;Samples;Min_cycle;Max_cycle;Signal;HPM_P1;HPM_P2
2023/11/29 00:00:53;;;;;;;17.65;9.13;;;;;;;;;;6314911;22;20309;-93
2023/11/29 00:03:25;;;;;;;18.45;8.95;;;;;;;;;;6315460;22;20007;-94
2023/11/29 00:06:11;;;;;;;20.80;9.77;;;;;;;;;;6314477;22;20007;-96
2023/11/29 00:08:37;;;;;;;14.68;8.38;;;;;;;;;;6316997;22;19999;-96
2023/11/29 00:11:18;;;;;;;16.00;8.77;;;;;;;;;;6321947;22;20002;-95
2023/11/29 00:13:47;;;;;;;15.15;8.27;;;;;;;;;;6321282;22;20440;-95
2023/11/29 00:16:20;;;;;;;17.85;8.68;;;;;;;;;;6316101;22;19999;-93
2023/11/29 00:18:52;;;;;;;13.27;8.20;;;;;;;;;;6306230;22;20030;-94
2023/11/29 00:27:46;;;;;;;15.27;8.80;;;;;;;;;;6340771;22;20262;-93
2023/11/29 00:30:28;;;;;;;15.60;7.95;;;;;;;;;;6340061;22;20235;-93
2023/11/29 00:33:04;;;;;;;14.75;7.47;;;;;;;;;;6312802;22;20011;-94
2023/11/29 00:35:30;;;;;;;13.90;7.30;;;;;;;;;;6313954;22;20112;-94
2023/11/29 00:37:56;;;;;;;14.35;7.40;;;;;;;;;;6313556;22;20432;-94
2023/11/29 00:40:22;;;;;;;13.85;7.05;;;;;;;;;;6313255;22;20013;-94
2023/11/29 00:42:52;;;;;;;15.25;7.72;;;;;;;;;;6313431;22;20015;-94
2023/11/29 00:45:21;;;;;;;15.77;7.25;;;;;;;;;;6276388;22;20011;-95
2023/11/29 00:47:56;;;;;;;14.43;7.40;;;;;;;;;;6283776;22;20004;-91
2023/11/29 00:50:34;;;;;;;13.55;7.53;;;;;;;;;;6262776;22;20035;-94
2023/11/29 00:53:00;;;;;;;12.18;6.97;;;;;;;;;;6245970;23;20012;-94
2023/11/29 00:55:26;;;;;;;15.30;7.38;;;;;;;;;;6232484;23;20038;-92
2023/11/29 00:57:58;;;;;;;13.65;7.85;;;;;;;;;;6225278;23;20000;-93
2023/11/29 01:00:40;;;;;;;13.18;6.95;;;;;;;;;;6221522;23;20004;-93
2023/11/29 01:06:01;;;;;;;13.15;7.03;;;;;;;;;;6162182;23;20010;-93
2023/11/29 01:08:43;;;;;;;16.08;6.78;;;;;;;;;;6244519;23;20485;-92
2023/11/29 01:11:12;;;;;;;13.80;6.90;;;;;;;;;;6220650;23;20008;-94
2023/11/29 01:13:50;;;;;;;11.82;6.40;;;;;;;;;;6220315;23;20012;-94
2023/11/29 01:16:25;;;;;;;13.43;7.25;;;;;;;;;;6235024;22;20405;-94
2023/11/29 01:18:54;;;;;;;13.30;6.88;;;;;;;;;;6276345;22;20659;-94
2023/11/29 01:21:27;;;;;;;12.55;7.00;;;;;;;;;;6275986;22;20004;-93
2023/11/29 01:23:56;;;;;;;11.98;6.25;;;;;;;;;;6296185;22;20007;-94
2023/11/29 01:26:25;;;;;;;14.30;7.45;;;;;;;;;;6313749;22;19999;-92
2023/11/29 01:28:54;;;;;;;12.80;7.47;;;;;;;;;;6313211;22;20419;-94
2023/11/29 01:31:27;;;;;;;14.35;7.70;;;;;;;;;;6313364;22;20022;-95
2023/11/29 01:34:02;;;;;;;14.85;7.65;;;;;;;;;;6245311;23;20062;-94
2023/11/29 01:36:31;;;;;;;13.77;7.20;;;;;;;;;;6218993;23;20036;-94
2023/11/29 01:39:13;;;;;;;15.10;7.55;;;;;;;;;;6220161;23;20008;-95
2023/11/29 01:41:42;;;;;;;13.23;7.20;;;;;;;;;;6218697;23;20004;-94
2023/11/29 01:44:14;;;;;;;15.35;7.65;;;;;;;;;;6220010;23;20028;-93
2023/11/29 01:46:40;;;;;;;13.25;7.00;;;;;;;;;;6220031;23;20008;-94
2023/11/29 01:49:16;;;;;;;17.27;8.15;;;;;;;;;;6220318;23;20426;-93
2023/11/29 01:51:51;;;;;;;16.77;7.90;;;;;;;;;;6220295;23;20004;-93
2023/11/29 01:54:17;;;;;;;13.75;7.20;;;;;;;;;;6220789;23;20016;-94
2023/11/29 01:56:43;;;;;;;17.33;7.63;;;;;;;;;;6219936;23;20028;-92
2023/11/29 01:59:10;;;;;;;16.05;8.15;;;;;;;;;;6220604;23;20014;-95
2023/11/29 02:01:51;;;;;;;15.90;7.45;;;;;;;;;;6228081;23;20015;-93
2023/11/29 02:04:23;;;;;;;16.38;7.28;;;;;;;;;;6242132;22;20063;-93
2023/11/29 02:06:58;;;;;;;13.73;7.65;;;;;;;;;;6275701;22;20004;-93
2023/11/29 02:09:27;;;;;;;17.48;8.27;;;;;;;;;;6250482;22;20004;-93
2023/11/29 02:11:57;;;;;;;15.45;7.70;;;;;;;;;;6250113;22;20082;-94
2023/11/29 02:14:27;;;;;;;16.42;8.23;;;;;;;;;;6250074;22;20012;-94
2023/11/29 02:20:03;;;;;;;17.00;8.60;;;;;;;;;;6215194;23;20020;-93
2023/11/29 02:22:32;;;;;;;21.80;8.63;;;;;;;;;;6189636;23;20028;-92
2023/11/29 02:25:01;;;;;;;18.45;8.80;;;;;;;;;;6189890;23;20009;-94
2023/11/29 02:27:36;;;;;;;15.23;7.97;;;;;;;;;;6188202;23;20032;-92
2023/11/29 02:30:08;;;;;;;17.90;8.25;;;;;;;;;;6204782;23;20047;-90
2023/11/29 02:32:46;;;;;;;17.67;8.20;;;;;;;;;;6167211;23;20072;-94
2023/11/29 02:35:15;;;;;;;19.48;9.13;;;;;;;;;;6189545;23;20232;-93
2023/11/29 02:37:49;;;;;;;17.55;8.45;;;;;;;;;;6203681;23;20004;-93
2023/11/29 02:40:23;;;;;;;18.02;9.00;;;;;;;;;;6219721;23;20445;-93
2023/11/29 02:42:58;;;;;;;19.85;8.95;;;;;;;;;;6216157;23;20074;-94
2023/11/29 02:45:27;;;;;;;20.10;9.07;;;;;;;;;;6226128;23;20019;-93
2023/11/29 02:47:58;;;;;;;17.27;8.65;;;;;;;;;;6231058;23;19988;-92
2023/11/29 02:50:27;;;;;;;20.25;8.68;;;;;;;;;;6277656;22;20015;-93
2023/11/29 02:53:00;;;;;;;16.33;8.40;;;;;;;;;;6298228;22;20018;-93
2023/11/29 02:55:55;;;;;;;18.25;8.80;;;;;;;;;;6320905;22;20003;-93
2023/11/29 02:58:31;;;;;;;19.65;9.50;;;;;;;;;;6258742;22;20077;-95
2023/11/29 03:00:57;;;;;;;19.65;9.35;;;;;;;;;;6315051;22;20053;-93
2023/11/29 03:03:23;;;;;;;20.17;9.48;;;;;;;;;;6314520;22;20003;-93
2023/11/29 03:05:49;;;;;;;19.63;9.20;;;;;;;;;;6315001;22;20010;-94
2023/11/29 03:08:21;;;;;;;21.50;9.57;;;;;;;;;;6315267;22;20007;-94
2023/11/29 03:10:50;;;;;;;25.38;10.15;;;;;;;;;;6314677;22;19998;-93
2023/11/29 03:13:46;;;;;;;18.30;9.20;;;;;;;;;;6314293;22;20010;-94
2023/11/29 03:16:12;;;;;;;19.38;9.68;;;;;;;;;;6250562;22;20010;-94
2023/11/29 03:18:41;;;;;;;22.25;10.00;;;;;;;;;;6314418;22;20432;-93
2023/11/29 03:21:13;;;;;;;22.65;9.05;;;;;;;;;;6314877;22;20003;-93
2023/11/29 03:23:42;;;;;;;23.42;9.07;;;;;;;;;;6315819;22;20081;-93
2023/11/29 03:26:09;;;;;;;18.75;8.30;;;;;;;;;;6315633;22;20010;-94
2023/11/29 03:28:35;;;;;;;23.50;10.68;;;;;;;;;;6278372;22;20027;-93
2023/11/29 03:31:07;;;;;;;19.00;9.18;;;;;;;;;;6252177;22;20015;-93
2023/11/29 03:33:36;;;;;;;19.45;9.02;;;;;;;;;;6251700;22;20104;-94
2023/11/29 03:36:02;;;;;;;23.05;9.65;;;;;;;;;;6252131;22;20279;-94
2023/11/29 03:38:28;;;;;;;19.20;9.35;;;;;;;;;;6251371;22;20007;-93
2023/11/29 03:40:57;;;;;;;18.75;8.75;;;;;;;;;;6252071;22;20058;-94
2023/11/29 03:43:29;;;;;;;19.48;9.65;;;;;;;;;;6251728;22;20076;-94
2023/11/29 03:45:56;;;;;;;17.60;9.15;;;;;;;;;;6251922;22;20007;-94
2023/11/29 03:48:25;;;;;;;17.95;8.45;;;;;;;;;;6251704;22;20004;-93
2023/11/29 03:51:03;;;;;;;22.70;10.43;;;;;;;;;;6235904;22;20067;-93
2023/11/29 03:53:34;;;;;;;20.85;9.90;;;;;;;;;;6253591;22;20018;-93
2023/11/29 03:56:03;;;;;;;19.63;9.23;;;;;;;;;;6251174;22;20476;-93
2023/11/29 03:58:55;;;;;;;19.05;9.32;;;;;;;;;;6254761;22;20030;-95
2023/11/29 04:01:24;;;;;;;23.27;9.68;;;;;;;;;;6313776;22;20006;-94
2023/11/29 04:03:54;;;;;;;20.02;9.43;;;;;;;;;;6314228;22;20003;-93
2023/11/29 04:06:27;;;;;;;19.67;10.48;;;;;;;;;;6314717;22;20435;-93
2023/11/29 04:08:56;;;;;;;23.75;10.32;;;;;;;;;;6319909;22;20029;-89
2023/11/29 04:11:23;;;;;;;22.77;10.30;;;;;;;;;;6329587;22;20007;-94
2023/11/29 04:13:50;;;;;;;19.10;9.95;;;;;;;;;;6308370;22;20083;-94
2023/11/29 04:16:27;;;;;;;22.00;10.68;;;;;;;;;;6315331;22;20028;-94
2023/11/29 04:18:56;;;;;;;21.45;10.68;;;;;;;;;;6313174;22;20009;-95
2023/11/29 04:21:29;;;;;;;24.08;10.25;;;;;;;;;;6316163;22;19999;-94
2023/11/29 04:23:58;;;;;;;17.10;9.80;;;;;;;;;;6318052;22;20003;-95
2023/11/29 04:26:41;;;;;;;22.10;10.48;;;;;;;;;;6315900;22;20455;-93
2023/11/29 04:29:14;;;;;;;21.30;10.00;;;;;;;;;;6313955;22;20436;-95
2023/11/29 04:31:46;;;;;;;19.02;9.57;;;;;;;;;;6313643;22;20013;-93
2023/11/29 04:34:16;;;;;;;19.30;10.13;;;;;;;;;;6315640;22;20474;-93
2023/11/29 04:37:07;;;;;;;21.63;10.55;;;;;;;;;;6324546;22;20000;-93
2023/11/29 04:39:50;;;;;;;22.15;10.73;;;;;;;;;;6305049;22;20003;-95
2023/11/29 04:42:18;;;;;;;21.35;9.90;;;;;;;;;;6260626;22;20007;-95
2023/11/29 04:44:48;;;;;;;21.90;11.15;;;;;;;;;;6295555;22;20003;-94
2023/11/29 04:47:18;;;;;;;21.10;10.88;;;;;;;;;;6289482;22;20007;-95
2023/11/29 04:49:47;;;;;;;20.45;10.05;;;;;;;;;;6282415;22;20014;-95
2023/11/29 04:52:16;;;;;;;23.90;11.27;;;;;;;;;;6283177;22;20003;-94
2023/11/29 04:54:43;;;;;;;25.02;11.00;;;;;;;;;;6282072;22;20022;-93
2023/11/29 04:57:15;;;;;;;22.05;10.77;;;;;;;;;;6281015;22;20161;-94
2023/11/29 04:59:48;;;;;;;23.60;11.85;;;;;;;;;;6282364;22;20090;-95
2023/11/29 05:02:14;;;;;;;24.75;12.07;;;;;;;;;;6282967;22;20004;-95
2023/11/29 05:04:57;;;;;;;28.20;12.63;;;;;;;;;;6281952;22;20004;-95
2023/11/29 05:07:26;;;;;;;;;;;;;;;;;;6308731;22;20053;-95
2023/11/29 05:09:53;;;;;;;24.70;10.80;;;;;;;;;;6310847;22;19899;-95
2023/11/29 05:12:19;;;;;;;23.67;10.75;;;;;;;;;;6313835;22;20450;-95
2023/11/29 05:14:48;;;;;;;24.40;10.77;;;;;;;;;;6314025;22;20086;-95
2023/11/29 05:17:20;;;;;;;27.55;11.13;;;;;;;;;;6314498;22;20003;-95
2023/11/29 05:20:02;;;;;;;27.70;11.75;;;;;;;;;;6315559;22;20007;-95
2023/11/29 05:22:54;;;;;;;25.20;11.73;;;;;;;;;;6314343;22;20007;-95
2023/11/29 05:25:20;;;;;;;28.92;13.20;;;;;;;;;;6314882;22;20007;-93
2023/11/29 05:27:47;;;;;;;26.67;11.88;;;;;;;;;;6314521;22;20007;-94
2023/11/29 05:30:19;;;;;;;24.27;10.95;;;;;;;;;;6313576;22;20003;-93
2023/11/29 05:36:03;;;;;;;30.65;11.63;;;;;;;;;;6343057;22;20017;-93
2023/11/29 05:38:29;;;;;;;25.55;11.20;;;;;;;;;;6316130;22;20442;-91
2023/11/29 05:44:43;;;;;;;25.60;11.73;;;;;;;;;;6155225;23;20059;-93
2023/11/29 05:47:11;;;;;;;25.50;12.15;;;;;;;;;;6155375;23;20009;-94
2023/11/29 05:49:39;;;;;;;21.20;10.57;;;;;;;;;;6167706;23;20107;-92
2023/11/29 05:52:14;;;;;;;24.00;11.05;;;;;;;;;;6163038;23;20006;-94
2023/11/29 05:54:43;;;;;;;21.55;9.98;;;;;;;;;;6156035;23;20351;-92
2023/11/29 05:57:15;;;;;;;22.23;10.07;;;;;;;;;;6131657;23;20006;-94
2023/11/29 05:59:44;;;;;;;22.83;10.77;;;;;;;;;;6156795;23;20094;-94
2023/11/29 06:02:14;;;;;;;23.15;11.00;;;;;;;;;;6300770;22;20003;-93
2023/11/29 06:04:40;;;;;;;25.42;10.60;;;;;;;;;;6309608;22;20090;-93
2023/11/29 06:07:09;;;;;;;23.15;10.30;;;;;;;;;;6329082;22;20082;-93
2023/11/29 06:12:58;;;;;;;28.92;11.45;;;;;;;;;;6308264;22;20046;-94
2023/11/29 06:15:30;;;;;;;21.88;10.48;;;;;;;;;;6254058;22;20012;-94
2023/11/29 06:17:56;;;;;;;26.55;10.38;;;;;;;;;;6255335;22;20031;-95
2023/11/29 06:20:28;;;;;;;21.50;9.52;;;;;;;;;;6252890;22;20007;-94
2023/11/29 06:22:57;;;;;;;26.83;10.52;;;;;;;;;;6251587;22;20016;-93
2023/11/29 06:25:41;;;;;;;20.83;9.70;;;;;;;;;;6269825;22;20016;-92
2023/11/29 06:28:19;;;;;;;;;;;;;;;;;;6256897;22;20055;-94
2023/11/29 06:33:58;;;;;;;22.67;9.10;;;;;;;;;;6285799;22;20026;-95
2023/11/29 06:36:30;;;;;;;24.00;10.32;;;;;;;;;;6284101;22;20003;-95
2023/11/29 06:38:59;;;;;;;23.92;10.15;;;;;;;;;;6290091;22;20011;-93
2023/11/29 06:41:28;;;;;;;21.95;9.50;;;;;;;;;;6288714;22;19999;-94
2023/11/29 06:43:54;;;;;;;22.48;10.52;;;;;;;;;;6284492;22;20437;-94
2023/11/29 06:46:22;;;;;;;23.55;10.43;;;;;;;;;;6284244;22;20007;-94
2023/11/29 06:49:13;;;;;;;21.67;10.05;;;;;;;;;;6286859;22;20024;-94
2023/11/29 06:51:46;;;;;;;18.33;9.15;;;;;;;;;;6274992;22;20022;-93
2023/11/29 06:54:21;;;;;;;18.37;8.97;;;;;;;;;;6282268;22;20064;-94
2023/11/29 06:56:47;;;;;;;19.90;9.23;;;;;;;;;;6281772;22;20317;-96
2023/11/29 07:02:40;;;;;;;18.77;8.32;;;;;;;;;;6215050;23;20015;-95
2023/11/29 07:05:24;;;;;;;19.67;8.75;;;;;;;;;;6186579;23;20005;-95
2023/11/29 07:08:03;;;;;;;16.17;8.25;;;;;;;;;;6191782;23;20429;-93
2023/11/29 07:10:38;;;;;;;17.45;8.35;;;;;;;;;;6190070;23;20030;-93
2023/11/29 07:13:05;;;;;;;17.90;8.73;;;;;;;;;;6189931;23;20092;-94
2023/11/29 07:15:34;;;;;;;15.73;8.02;;;;;;;;;;6189677;23;20501;-93
2023/11/29 07:18:10;;;;;;;18.85;9.73;;;;;;;;;;6190018;23;20008;-94
2023/11/29 07:20:41;;;;;;;17.55;10.18;;;;;;;;;;6190049;23;20480;-94
2023/11/29 07:23:10;;;;;;;15.23;9.40;;;;;;;;;;6193669;23;20036;-94
2023/11/29 07:25:43;;;;;;;15.82;10.68;;;;;;;;;;6189319;23;20448;-95
2023/11/29 07:28:11;;;;;;;21.80;13.13;;;;;;;;;;6191398;23;20005;-93
2023/11/29 07:30:43;;;;;;;22.83;14.10;;;;;;;;;;6193957;23;20064;-92
2023/11/29 07:36:20;;;;;;;24.70;13.43;;;;;;;;;;6309351;22;20015;-93
2023/11/29 07:38:52;;;;;;;21.90;14.45;;;;;;;;;;6283633;22;20003;-95
2023/11/29 07:41:22;;;;;;;17.90;12.55;;;;;;;;;;6286302;22;20413;-95
2023/11/29 07:44:07;;;;;;;22.02;14.27;;;;;;;;;;6283713;22;20086;-94
2023/11/29 07:46:38;;;;;;;18.60;13.02;;;;;;;;;;6283413;22;20010;-95
2023/11/29 07:49:18;;;;;;;;;;;;;;;;;;;;;
2023/11/29 07:51:56;;;;;;;18.88;14.13;;;;;;;;;;6310524;22;20078;-95
2023/11/29 07:54:29;;;;;;;17.20;13.13;;;;;;;;;;6283729;22;20011;-95
2023/11/29 07:56:55;;;;;;;;;;;;;;;;;;6285656;22;20004;-95
2023/11/29 07:59:28;;;;;;;14.95;11.57;;;;;;;;;;6283452;22;19899;-96
2023/11/29 08:02:00;;;;;;;16.27;11.37;;;;;;;;;;6284392;22;20382;-95
2023/11/29 08:04:26;;;;;;;16.23;12.73;;;;;;;;;;6282857;22;20006;-96
2023/11/29 08:06:58;;;;;;;18.48;13.27;;;;;;;;;;6282869;22;20007;-93
2023/11/29 08:09:27;;;;;;;15.82;11.75;;;;;;;;;;6282627;22;20548;-95
2023/11/29 08:11:57;;;;;;;13.52;11.02;;;;;;;;;;6282980;22;20007;-94
2023/11/29 08:14:31;;;;;;;14.00;11.20;;;;;;;;;;6286187;22;20015;-93
2023/11/29 08:17:04;;;;;;;13.45;11.88;;;;;;;;;;6314373;22;20002;-96
2023/11/29 08:19:33;;;;;;;12.18;9.80;;;;;;;;;;6316575;22;20003;-96
2023/11/29 08:22:03;;;;;;;13.88;10.82;;;;;;;;;;6342482;22;20017;-96
2023/11/29 08:24:36;;;;;;;15.15;10.93;;;;;;;;;;6314586;22;19999;-96
2023/11/29 08:27:15;;;;;;;18.13;11.50;;;;;;;;;;6324443;22;20007;-96
2023/11/29 08:29:44;;;;;;;17.80;13.02;;;;;;;;;;6340025;22;19987;-95
2023/11/29 08:32:14;;;;;;;12.25;9.63;;;;;;;;;;6327442;22;20007;-95
2023/11/29 08:34:44;;;;;;;12.68;8.93;;;;;;;;;;6316768;22;20059;-96
2023/11/29 08:45:04;;;;;;;14.38;8.95;;;;;;;;;;6266541;22;20514;-95
2023/11/29 08:47:44;;;;;;;;;;;;;;;;;;;;;
2023/11/29 08:56:18;;;;;;;12.88;9.05;;;;;;;;;;6216954;23;20074;-96
2023/11/29 08:58:51;;;;;;;16.27;9.50;;;;;;;;;;6191617;23;20072;-94
2023/11/29 09:04:27;;;;;;;11.07;7.97;;;;;;;;;;6341988;22;20013;-95
2023/11/29 09:06:56;;;;;;;9.50;6.35;;;;;;;;;;6310628;22;20009;-94
2023/11/29 09:09:22;;;;;;;9.73;7.13;;;;;;;;;;6317742;22;20027;-94
2023/11/29 09:15:06;;;;;;;12.18;8.52;;;;;;;;;;6358356;22;20014;-92
2023/11/29 09:23:15;;;;;;;9.50;7.30;;;;;;;;;;6312518;22;20022;-96
2023/11/29 09:25:56;;;;;;;8.48;7.35;;;;;;;;;;6293325;22;20094;-95
2023/11/29 09:33:59;;;;;;;10.70;8.48;;;;;;;;;;6335208;22;20004;-94
2023/11/29 09:36:31;;;;;;;9.68;8.07;;;;;;;;;;6299340;22;19999;-96
2023/11/29 09:39:19;;;;;;;9.57;7.47;;;;;;;;;;6289728;22;19988;-96
2023/11/29 09:42:12;;;;;;;9.05;7.50;;;;;;;;;;6293187;22;20066;-96
2023/11/29 09:44:41;;;;;;;9.00;6.90;;;;;;;;;;6289500;22;20007;-96
2023/11/29 09:47:23;;;;;;;8.15;6.63;;;;;;;;;;6247576;23;20468;-96
2023/11/29 09:49:58;;;;;;;9.57;7.63;;;;;;;;;;6283356;22;20007;-96
2023/11/29 09:52:28;;;;;;;9.90;7.70;;;;;;;;;;6286156;22;20004;-96
2023/11/29 09:58:22;;;;;;;8.70;7.10;;;;;;;;;;6309786;22;20379;-96
2023/11/29 10:00:51;;;;;;;9.27;7.45;;;;;;;;;;6278063;22;20079;-96
2023/11/29 10:03:22;;;;;;;7.50;6.47;;;;;;;;;;6282154;22;20011;-96
2023/11/29 10:05:51;;;;;;;9.30;7.15;;;;;;;;;;6283152;22;20003;-96
2023/11/29 10:08:27;;;;;;;7.93;6.80;;;;;;;;;;6309512;22;20007;-96
2023/11/29 10:11:03;;;;;;;;;;;;;;;;;;;;;
2023/11/29 10:13:42;;;;;;;8.65;6.50;;;;;;;;;;6255777;22;20092;-95
2023/11/29 10:16:20;;;;;;;7.20;6.40;;;;;;;;;;6288345;22;20010;-96
2023/11/29 10:18:52;;;;;;;6.97;6.28;;;;;;;;;;6258765;22;20004;-95
2023/11/29 10:21:22;;;;;;;6.50;5.20;;;;;;;;;;6282679;22;20026;-95
2023/11/29 10:23:56;;;;;;;6.45;5.38;;;;;;;;;;6305799;22;20037;-94
2023/11/29 10:26:34;;;;;;;6.68;5.97;;;;;;;;;;6291642;22;20016;-96
2023/11/29 10:29:00;;;;;;;7.32;6.63;;;;;;;;;;6289600;22;20014;-96
2023/11/29 10:31:36;;;;;;;7.00;6.30;;;;;;;;;;6286447;22;20030;-94
2023/11/29 10:34:07;;;;;;;7.18;6.20;;;;;;;;;;6272574;22;20015;-96
2023/11/29 10:37:03;;;;;;;8.85;7.03;;;;;;;;;;6258923;23;20004;-96
2023/11/29 10:39:52;;;;;;;7.43;5.85;;;;;;;;;;6205651;23;20008;-96
2023/11/29 10:42:36;;;;;;;7.13;5.70;;;;;;;;;;6205391;23;20174;-96
2023/11/29 10:45:21;;;;;;;;;;;;;;;;;;;;;
2023/11/29 10:48:12;;;;;;;6.05;5.35;;;;;;;;;;6256249;23;19923;-96
2023/11/29 10:54:00;;;;;;;5.82;5.10;;;;;;;;;;6255136;23;20120;-96
2023/11/29 10:59:41;;;;;;;6.93;5.50;;;;;;;;;;6235225;22;19997;-93
2023/11/29 11:02:16;;;;;;;6.55;5.85;;;;;;;;;;6257730;22;20087;-94
2023/11/29 11:05:24;;;;;;;;;;;;;;;;;;;;;
2023/11/29 11:08:29;;;;;;;8.43;5.03;;;;;;;;;;6211696;23;20036;-96
2023/11/29 11:11:04;;;;;;;5.95;4.93;;;;;;;;;;6086911;23;20038;-96
2023/11/29 11:20:08;;;;;;;8.82;6.03;;;;;;;;;;6049861;23;20039;-96
2023/11/29 11:22:49;;;;;;;7.15;6.20;;;;;;;;;;6040405;23;20021;-96
2023/11/29 11:25:38;;;;;;;7.80;6.28;;;;;;;;;;6032303;23;20022;-96
2023/11/29 11:28:40;;;;;;;7.07;5.80;;;;;;;;;;6004773;23;20008;-96
2023/11/29 11:31:54;;;;;;;;;;;;;;;;;;;;;
2023/11/29 11:34:44;;;;;;;9.48;6.30;;;;;;;;;;5970339;24;20040;-96
2023/11/29 11:40:21;;;;;;;6.97;5.10;;;;;;;;;;5991694;23;20035;-95
2023/11/29 11:49:31;;;;;;;7.80;5.40;;;;;;;;;;5997739;23;20024;-95
2023/11/29 11:52:33;;;;;;;9.50;5.28;;;;;;;;;;5995349;23;20015;-96
2023/11/29 11:55:26;;;;;;;7.47;5.00;;;;;;;;;;5972422;24;20016;-95
2023/11/29 11:58:10;;;;;;;;;;;;;;;;;;;;;
2023/11/29 12:03:30;;;;;;;7.60;4.53;;;;;;;;;;5990425;23;20053;-96
2023/11/29 12:06:11;;;;;;;9.02;4.90;;;;;;;;;;5994107;24;20015;-96
2023/11/29 12:08:44;;;;;;;8.80;5.07;;;;;;;;;;5990855;24;20005;-93
2023/11/29 12:11:13;;;;;;;13.27;7.07;;;;;;;;;;5987899;24;20116;-94
2023/11/29 12:13:58;;;;;;;12.02;6.35;;;;;;;;;;5993473;23;20018;-94
2023/11/29 12:16:33;;;;;;;12.20;6.80;;;;;;;;;;6011777;23;20082;-94
2023/11/29 12:21:35;;;;;;;10.48;7.30;;;;;;;;;;6332437;22;20022;-95
2023/11/29 12:24:13;;;;;;;12.00;8.07;;;;;;;;;;6315323;22;20007;-95
2023/11/29 12:27:07;;;;;;;12.77;8.52;;;;;;;;;;6308140;22;20002;-93
2023/11/29 12:29:51;;;;;;;10.40;7.85;;;;;;;;;;6304900;22;20006;-92
2023/11/29 12:35:20;;;;;;;19.08;10.07;;;;;;;;;;6247115;23;20104;-94
2023/11/29 12:37:52;;;;;;;10.68;8.70;;;;;;;;;;6222505;22;20015;-94
2023/11/29 12:40:22;;;;;;;12.50;8.65;;;;;;;;;;6317561;22;20002;-91
2023/11/29 12:42:51;;;;;;;11.10;7.25;;;;;;;;;;6296391;22;20139;-94
2023/11/29 12:45:20;;;;;;;15.02;7.45;;;;;;;;;;6276109;22;20003;-95
2023/11/29 12:51:17;;;;;;;13.05;7.25;;;;;;;;;;6185940;23;20028;-94
2023/11/29 12:53:58;;;;;;;13.57;6.72;;;;;;;;;;6229945;22;20000;-94
2023/11/29 12:56:25;;;;;;;13.85;8.63;;;;;;;;;;6325244;22;19988;-94
2023/11/29 12:59:00;;;;;;;14.52;9.98;;;;;;;;;;6283605;22;19999;-94
2023/11/29 13:01:35;;;;;;;14.55;10.48;;;;;;;;;;6278069;22;20004;-94
2023/11/29 13:04:28;;;;;;;14.68;10.18;;;;;;;;;;6252185;22;20014;-95
2023/11/29 13:06:57;;;;;;;14.00;9.68;;;;;;;;;;6238986;22;20440;-95
2023/11/29 13:09:35;;;;;;;13.25;11.38;;;;;;;;;;6277796;22;20099;-92
2023/11/29 13:17:34;;;;;;;16.27;12.60;;;;;;;;;;6308598;22;20049;-95
2023/11/29 13:20:03;;;;;;;15.55;12.45;;;;;;;;;;6316622;22;20021;-96
2023/11/29 13:22:29;;;;;;;19.65;13.98;;;;;;;;;;6308499;22;20010;-95
2023/11/29 13:24:59;;;;;;;16.92;13.18;;;;;;;;;;6282387;22;20026;-94
2023/11/29 13:27:27;;;;;;;11.85;10.65;;;;;;;;;;6283179;22;20010;-95
2023/11/29 13:29:57;;;;;;;14.82;11.25;;;;;;;;;;6281952;22;20045;-94
2023/11/29 13:32:34;;;;;;;13.30;10.63;;;;;;;;;;6281648;22;20085;-93
2023/11/29 13:38:29;;;;;;;15.98;10.98;;;;;;;;;;6307785;22;20013;-94
2023/11/29 13:41:01;;;;;;;14.68;11.38;;;;;;;;;;6282491;22;20003;-93
2023/11/29 13:43:27;;;;;;;16.45;10.63;;;;;;;;;;6281086;22;20359;-94
2023/11/29 13:45:53;;;;;;;14.98;11.63;;;;;;;;;;6282791;22;20008;-94
2023/11/29 13:48:31;;;;;;;14.35;10.85;;;;;;;;;;6283424;22;20004;-94
2023/11/29 13:51:04;;;;;;;16.58;11.98;;;;;;;;;;6281942;22;20031;-94
2023/11/29 13:56:39;;;;;;;18.02;11.88;;;;;;;;;;6277136;22;20014;-93
2023/11/29 13:59:08;;;;;;;24.40;14.77;;;;;;;;;;6251069;22;20058;-92
2023/11/29 14:01:34;;;;;;;18.67;14.48;;;;;;;;;;6251051;22;20003;-93
2023/11/29 14:04:01;;;;;;;27.35;16.17;;;;;;;;;;6247123;22;20086;-94
2023/11/29 14:06:30;;;;;;;25.33;16.90;;;;;;;;;;6250482;22;20007;-95
2023/11/29 14:08:56;;;;;;;16.58;13.50;;;;;;;;;;6250599;22;20008;-94
2023/11/29 14:11:28;;;;;;;13.93;11.77;;;;;;;;;;6262235;22;19995;-93
2023/11/29 14:13:58;;;;;;;13.70;12.27;;;;;;;;;;6271810;22;20015;-94
2023/11/29 14:16:25;;;;;;;13.15;11.73;;;;;;;;;;6252580;22;20034;-94
2023/11/29 14:18:54;;;;;;;15.80;12.90;;;;;;;;;;6195215;23;20016;-94
2023/11/29 14:21:30;;;;;;;18.83;14.02;;;;;;;;;;6220653;23;20004;-93
2023/11/29 14:23:59;;;;;;;17.73;14.55;;;;;;;;;;6232240;23;19992;-92
2023/11/29 14:26:31;;;;;;;17.60;13.13;;;;;;;;;;6239640;22;20079;-95
2023/11/29 14:29:09;;;;;;;14.65;12.65;;;;;;;;;;6280574;22;20007;-95
2023/11/29 14:31:36;;;;;;;16.73;12.60;;;;;;;;;;6278833;22;20364;-95
2023/11/29 14:34:05;;;;;;;14.65;12.15;;;;;;;;;;6304452;22;20019;-95
2023/11/29 14:36:44;;;;;;;15.95;12.35;;;;;;;;;;6275625;22;20333;-95
2023/11/29 14:39:24;;;;;;;18.98;11.40;;;;;;;;;;6279157;22;20066;-96
2023/11/29 14:47:38;;;;;;;16.88;11.05;;;;;;;;;;6263262;22;20046;-95
2023/11/29 14:50:16;;;;;;;17.08;10.30;;;;;;;;;;6314817;22;20003;-94
2023/11/29 14:55:27;;;;;;;19.67;10.93;;;;;;;;;;6304112;22;20264;-95
2023/11/29 14:57:56;;;;;;;21.27;11.45;;;;;;;;;;6283313;22;20424;-94
2023/11/29 15:00:25;;;;;;;17.88;10.85;;;;;;;;;;6283439;22;20007;-93
2023/11/29 15:02:53;;;;;;;21.45;11.88;;;;;;;;;;6282382;22;20478;-94
2023/11/29 15:05:20;;;;;;;18.55;10.68;;;;;;;;;;6294376;22;20003;-94
2023/11/29 15:08:02;;;;;;;25.45;13.00;;;;;;;;;;6302491;22;20014;-93
2023/11/29 15:10:31;;;;;;;30.95;14.68;;;;;;;;;;6296313;22;20030;-93
2023/11/29 15:13:08;;;;;;;22.05;12.65;;;;;;;;;;6294905;22;20004;-94
2023/11/29 15:15:54;;;;;;;24.52;13.52;;;;;;;;;;6289166;22;20400;-92
2023/11/29 15:21:45;;;;;;;22.63;13.48;;;;;;;;;;6320720;22;19994;-93
2023/11/29 15:24:14;;;;;;;35.33;17.73;;;;;;;;;;6312404;22;20026;-96
2023/11/29 15:26:58;;;;;;;30.73;14.75;;;;;;;;;;6283740;22;20088;-95
2023/11/29 15:29:29;;;;;;;27.70;14.90;;;;;;;;;;6292603;22;20006;-94
2023/11/29 15:32:26;;;;;;;26.63;13.93;;;;;;;;;;6288003;22;20326;-95
2023/11/29 15:34:56;;;;;;;24.33;12.32;;;;;;;;;;6295777;22;20019;-96
2023/11/29 15:37:25;;;;;;;20.98;11.25;;;;;;;;;;6297537;22;20034;-95
2023/11/29 15:39:51;;;;;;;19.92;10.77;;;;;;;;;;6293900;22;20003;-95
2023/11/29 15:42:27;;;;;;;;;;;;;;;;;;;;;
2023/11/29 15:44:56;;;;;;;19.55;11.15;;;;;;;;;;6281514;22;20007;-94
2023/11/29 15:50:42;;;;;;;21.38;11.20;;;;;;;;;;6271479;22;20026;-94
2023/11/29 15:56:21;;;;;;;22.10;11.35;;;;;;;;;;6260149;23;20008;-94
2023/11/29 15:59:04;;;;;;;21.27;10.57;;;;;;;;;;6260603;23;20047;-93
2023/11/29 16:01:47;;;;;;;;;;;;;;;;;;;;;
2023/11/29 16:21:15;;;;;;;;;;;;;;;;;;;;;
2023/11/29 16:24:37;;;;;;;41.97;18.92;;;;;;;;;;6360765;22;19991;-93
2023/11/29 16:36:08;;;;;;;41.78;21.55;;;;;;;;;;6350088;22;20385;-93
2023/11/29 16:38:35;;;;;;;47.10;23.63;;;;;;;;;;6321514;22;20007;-94
2023/11/29 16:41:12;;;;;;;50.70;26.08;;;;;;;;;;6350150;22;20332;-93
2023/11/29 16:50:04;;;;;;;26.95;12.98;;;;;;;;;;6348629;22;20009;-94
2023/11/29 16:53:04;;;;;;;29.98;15.07;;;;;;;;;;6322971;22;20054;-91
2023/11/29 16:55:43;;;;;;;36.80;14.95;;;;;;;;;;6320590;22;20010;-93
2023/11/29 16:58:26;;;;;;;;;;;;;;;;;;;;;
2023/11/29 17:01:01;;;;;;;24.00;12.27;;;;;;;;;;6344603;22;20041;-94
2023/11/29 17:10:12;;;;;;;28.40;13.05;;;;;;;;;;6279263;22;20034;-94
2023/11/29 17:12:41;;;;;;;28.80;13.07;;;;;;;;;;6251337;22;20061;-93
2023/11/29 17:15:14;;;;;;;25.35;12.57;;;;;;;;;;6255391;22;20018;-94
2023/11/29 17:21:06;;;;;;;24.90;13.35;;;;;;;;;;6242374;22;20839;-95
2023/11/29 17:41:53;;;;;;;30.73;14.45;;;;;;;;;;6155887;23;20044;-94
2023/11/29 17:44:52;;;;;;;31.45;13.93;;;;;;;;;;6130511;23;20005;-94
2023/11/29 17:47:33;;;;;;;27.35;13.88;;;;;;;;;;6132620;23;20260;-95
2023/11/29 17:49:59;;;;;;;33.22;14.35;;;;;;;;;;6173654;22;20096;-93
2023/11/29 17:52:27;;;;;;;38.70;15.38;;;;;;;;;;6282283;22;20010;-93
2023/11/29 17:54:59;;;;;;;36.72;16.67;;;;;;;;;;6274350;22;20015;-92
2023/11/29 17:57:28;;;;;;;39.33;17.70;;;;;;;;;;6285494;22;20053;-91
2023/11/29 18:00:26;;;;;;;;;;;;;;;;;;;;;
2023/11/29 18:03:01;;;;;;;33.45;15.23;;;;;;;;;;6308953;22;20086;-93
2023/11/29 18:05:30;;;;;;;33.78;15.77;;;;;;;;;;6282951;22;20010;-93
2023/11/29 18:08:06;;;;;;;38.22;15.93;;;;;;;;;;6282413;22;20007;-94
2023/11/29 18:11:11;;;;;;;46.08;19.98;;;;;;;;;;6309033;22;20005;-93
2023/11/29 18:13:46;;;;;;;54.90;20.98;;;;;;;;;;6265661;22;20023;-92
2023/11/29 18:19:16;;;;;;;48.85;21.65;;;;;;;;;;6309641;22;20335;-93
2023/11/29 18:24:38;;;;;;;53.85;22.45;;;;;;;;;;6154972;23;20454;-94
2023/11/29 18:27:07;;;;;;;50.85;21.45;;;;;;;;;;6130416;23;20575;-92
2023/11/29 18:29:56;;;;;;;45.83;21.70;;;;;;;;;;6132038;23;20509;-93
2023/11/29 18:32:35;;;;;;;43.88;19.33;;;;;;;;;;6130726;23;20076;-93
2023/11/29 18:35:16;;;;;;;45.10;21.40;;;;;;;;;;6130231;23;20013;-93